sensor_id;sensor_type;location;lat;lon;timestamp;temperature;humidity
21403;DHT22;10862;51.886;17.078;2023-04-03T00:01:28;0.20;1.00
21403;DHT22;10862;51.886;17.078;2023-04-03T00:03:55;0.20;1.00
21403;DHT22;10862;51.886;17.078;2023-04-03T00:06:21;0.20;1.00
21403;DHT22;10862;51.886;17.078;2023-04-03T00:08:47;0.20;1.00
21403;DHT22;10862;51.886;17.078;2023-04-03T00:11:13;0.20;1.00
21403;DHT22;10862;51.886;17.078;2023-04-03T00:13:40;0.20;1.00
21403;DHT22;10862;51.886;17.078;2023-04-03T00:16:08;0.20;1.00
21403;DHT22;10862;51.886;17.078;2023-04-03T00:18:35;0.20;1.00
21403;DHT22;10862;51.886;17.078;2023-04-03T00:21:01;0.20;1.00
21403;DHT22;10862;51.886;17.078;2023-04-03T00:23:26;0.10;1.00
21403;DHT22;10862;51.886;17.078;2023-04-03T00:25:53;0.10;1.00
21403;DHT22;10862;51.886;17.078;2023-04-03T00:28:18;0.10;1.00
21403;DHT22;10862;51.886;17.078;2023-04-03T00:30:44;0.00;1.00
21403;DHT22;10862;51.886;17.078;2023-04-03T00:33:12;0.00;1.00
21403;DHT22;10862;51.886;17.078;2023-04-03T00:35:38;0.10;1.00
21403;DHT22;10862;51.886;17.078;2023-04-03T00:38:04;0.00;1.00
21403;DHT22;10862;51.886;17.078;2023-04-03T00:40:35;0.00;1.00
21403;DHT22;10862;51.886;17.078;2023-04-03T00:43:01;0.00;1.00
21403;DHT22;10862;51.886;17.078;2023-04-03T00:45:38;0.00;1.00
21403;DHT22;10862;51.886;17.078;2023-04-03T00:48:08;0.00;1.00
21403;DHT22;10862;51.886;17.078;2023-04-03T00:50:38;0.00;1.00
21403;DHT22;10862;51.886;17.078;2023-04-03T00:53:05;-0.10;1.00
21403;DHT22;10862;51.886;17.078;2023-04-03T00:55:32;0.00;1.00
21403;DHT22;10862;51.886;17.078;2023-04-03T00:57:59;-0.10;1.00
21403;DHT22;10862;51.886;17.078;2023-04-03T01:00:26;0.00;1.00
21403;DHT22;10862;51.886;17.078;2023-04-03T01:02:52;-0.10;1.00
21403;DHT22;10862;51.886;17.078;2023-04-03T01:05:19;-0.10;1.00
21403;DHT22;10862;51.886;17.078;2023-04-03T01:07:47;-0.10;1.00
21403;DHT22;10862;51.886;17.078;2023-04-03T01:10:15;-0.20;1.00
21403;DHT22;10862;51.886;17.078;2023-04-03T01:12:44;-0.20;1.00
21403;DHT22;10862;51.886;17.078;2023-04-03T01:15:19;-0.20;1.00
21403;DHT22;10862;51.886;17.078;2023-04-03T01:17:53;-0.20;1.00
21403;DHT22;10862;51.886;17.078;2023-04-03T01:25:37;-0.30;1.00
21403;DHT22;10862;51.886;17.078;2023-04-03T01:28:07;-0.30;1.00
21403;DHT22;10862;51.886;17.078;2023-04-03T01:30:44;-0.30;1.00
21403;DHT22;10862;51.886;17.078;2023-04-03T01:33:11;-0.30;1.00
21403;DHT22;10862;51.886;17.078;2023-04-03T01:35:38;-0.40;1.00
21403;DHT22;10862;51.886;17.078;2023-04-03T01:38:03;-0.40;1.00
21403;DHT22;10862;51.886;17.078;2023-04-03T01:40:29;-0.40;1.00
21403;DHT22;10862;51.886;17.078;2023-04-03T01:42:55;-0.40;1.00
21403;DHT22;10862;51.886;17.078;2023-04-03T01:45:20;-0.40;1.00
21403;DHT22;10862;51.886;17.078;2023-04-03T01:47:46;-0.40;1.00
21403;DHT22;10862;51.886;17.078;2023-04-03T01:50:12;-0.40;1.00
21403;DHT22;10862;51.886;17.078;2023-04-03T01:52:38;-0.40;1.00
21403;DHT22;10862;51.886;17.078;2023-04-03T01:55:03;-0.50;1.00
21403;DHT22;10862;51.886;17.078;2023-04-03T01:57:29;-0.40;1.00
21403;DHT22;10862;51.886;17.078;2023-04-03T01:59:55;-0.50;1.00
21403;DHT22;10862;51.886;17.078;2023-04-03T02:02:21;-0.50;1.00
21403;DHT22;10862;51.886;17.078;2023-04-03T02:04:46;-0.50;1.00
21403;DHT22;10862;51.886;17.078;2023-04-03T02:07:12;-0.50;1.00
21403;DHT22;10862;51.886;17.078;2023-04-03T02:09:38;-0.50;1.00
21403;DHT22;10862;51.886;17.078;2023-04-03T02:12:03;-0.50;1.00
21403;DHT22;10862;51.886;17.078;2023-04-03T02:14:29;-0.50;1.00
21403;DHT22;10862;51.886;17.078;2023-04-03T02:16:55;-0.50;1.00
21403;DHT22;10862;51.886;17.078;2023-04-03T02:19:21;-0.50;1.00
21403;DHT22;10862;51.886;17.078;2023-04-03T02:21:47;-0.50;1.00
21403;DHT22;10862;51.886;17.078;2023-04-03T02:24:13;-0.50;1.00
21403;DHT22;10862;51.886;17.078;2023-04-03T02:26:38;-0.60;1.00
21403;DHT22;10862;51.886;17.078;2023-04-03T02:29:04;-0.50;1.00
21403;DHT22;10862;51.886;17.078;2023-04-03T02:31:31;-0.60;1.00
21403;DHT22;10862;51.886;17.078;2023-04-03T02:33:56;-0.60;1.00
21403;DHT22;10862;51.886;17.078;2023-04-03T02:36:22;-0.60;1.00
21403;DHT22;10862;51.886;17.078;2023-04-03T02:38:48;-0.60;1.00
21403;DHT22;10862;51.886;17.078;2023-04-03T02:41:14;-0.70;1.00
21403;DHT22;10862;51.886;17.078;2023-04-03T02:43:40;-0.70;1.00
21403;DHT22;10862;51.886;17.078;2023-04-03T02:46:06;-0.70;1.00
21403;DHT22;10862;51.886;17.078;2023-04-03T02:48:32;-0.70;1.00
21403;DHT22;10862;51.886;17.078;2023-04-03T02:50:58;-0.70;1.00
21403;DHT22;10862;51.886;17.078;2023-04-03T02:53:24;-0.70;1.00
21403;DHT22;10862;51.886;17.078;2023-04-03T02:55:50;-0.70;1.00
21403;DHT22;10862;51.886;17.078;2023-04-03T02:58:16;-0.70;1.00
21403;DHT22;10862;51.886;17.078;2023-04-03T03:00:41;-0.80;1.00
21403;DHT22;10862;51.886;17.078;2023-04-03T03:03:07;-0.80;1.00
21403;DHT22;10862;51.886;17.078;2023-04-03T03:05:33;-0.70;1.00
21403;DHT22;10862;51.886;17.078;2023-04-03T03:07:59;-0.80;1.00
21403;DHT22;10862;51.886;17.078;2023-04-03T03:10:25;-0.80;1.00
21403;DHT22;10862;51.886;17.078;2023-04-03T03:12:51;-0.80;1.00
21403;DHT22;10862;51.886;17.078;2023-04-03T03:15:16;-0.80;1.00
21403;DHT22;10862;51.886;17.078;2023-04-03T03:17:43;-0.80;1.00
21403;DHT22;10862;51.886;17.078;2023-04-03T03:20:09;-0.80;1.00
21403;DHT22;10862;51.886;17.078;2023-04-03T03:22:35;-0.80;1.00
21403;DHT22;10862;51.886;17.078;2023-04-03T03:25:02;-0.90;2.40
21403;DHT22;10862;51.886;17.078;2023-04-03T03:27:28;-0.90;5.30
21403;DHT22;10862;51.886;17.078;2023-04-03T03:29:53;-0.90;6.20
21403;DHT22;10862;51.886;17.078;2023-04-03T03:32:19;-0.90;7.00
21403;DHT22;10862;51.886;17.078;2023-04-03T03:34:45;-0.90;8.70
21403;DHT22;10862;51.886;17.078;2023-04-03T03:37:11;-0.90;8.80
21403;DHT22;10862;51.886;17.078;2023-04-03T03:39:37;-1.00;11.20
21403;DHT22;10862;51.886;17.078;2023-04-03T03:42:03;-0.90;13.30
21403;DHT22;10862;51.886;17.078;2023-04-03T03:44:29;-0.90;13.70
21403;DHT22;10862;51.886;17.078;2023-04-03T03:46:55;-0.90;11.10
21403;DHT22;10862;51.886;17.078;2023-04-03T03:49:21;-0.90;12.00
21403;DHT22;10862;51.886;17.078;2023-04-03T03:51:47;-0.90;11.40
21403;DHT22;10862;51.886;17.078;2023-04-03T03:54:13;-1.00;12.60
21403;DHT22;10862;51.886;17.078;2023-04-03T03:56:39;-1.00;12.90
21403;DHT22;10862;51.886;17.078;2023-04-03T03:59:05;-0.90;12.60
21403;DHT22;10862;51.886;17.078;2023-04-03T04:01:31;-0.90;10.40
21403;DHT22;10862;51.886;17.078;2023-04-03T04:03:57;-0.90;10.80
21403;DHT22;10862;51.886;17.078;2023-04-03T04:06:23;-0.90;10.80
21403;DHT22;10862;51.886;17.078;2023-04-03T04:08:49;-0.90;10.50
21403;DHT22;10862;51.886;17.078;2023-04-03T04:11:14;-0.90;10.70
21403;DHT22;10862;51.886;17.078;2023-04-03T04:13:40;-0.90;12.60
21403;DHT22;10862;51.886;17.078;2023-04-03T04:16:07;-0.90;13.70
21403;DHT22;10862;51.886;17.078;2023-04-03T04:18:33;-0.90;15.00
21403;DHT22;10862;51.886;17.078;2023-04-03T04:20:59;-1.00;16.40
21403;DHT22;10862;51.886;17.078;2023-04-03T04:23:25;-0.90;19.10
21403;DHT22;10862;51.886;17.078;2023-04-03T04:25:51;-0.90;17.10
21403;DHT22;10862;51.886;17.078;2023-04-03T04:28:17;-0.90;16.30
21403;DHT22;10862;51.886;17.078;2023-04-03T04:30:43;-0.90;15.50
21403;DHT22;10862;51.886;17.078;2023-04-03T04:33:09;-0.90;15.70
21403;DHT22;10862;51.886;17.078;2023-04-03T04:35:35;-0.90;15.70
21403;DHT22;10862;51.886;17.078;2023-04-03T04:38:01;-0.90;15.70
21403;DHT22;10862;51.886;17.078;2023-04-03T04:40:28;-0.90;16.50
21403;DHT22;10862;51.886;17.078;2023-04-03T04:42:54;-0.90;15.20
21403;DHT22;10862;51.886;17.078;2023-04-03T04:45:20;-0.80;13.20
21403;DHT22;10862;51.886;17.078;2023-04-03T04:47:45;-0.90;12.70
21403;DHT22;10862;51.886;17.078;2023-04-03T04:50:12;-0.80;11.60
21403;DHT22;10862;51.886;17.078;2023-04-03T04:52:38;-0.80;10.90
21403;DHT22;10862;51.886;17.078;2023-04-03T04:55:05;-0.80;10.50
21403;DHT22;10862;51.886;17.078;2023-04-03T04:57:30;-0.80;10.70
21403;DHT22;10862;51.886;17.078;2023-04-03T04:59:56;-0.80;9.10
21403;DHT22;10862;51.886;17.078;2023-04-03T05:02:22;-0.70;7.50
21403;DHT22;10862;51.886;17.078;2023-04-03T05:04:47;-0.70;6.80
21403;DHT22;10862;51.886;17.078;2023-04-03T05:07:15;-0.70;1.80
21403;DHT22;10862;51.886;17.078;2023-04-03T05:09:41;-0.60;1.00
21403;DHT22;10862;51.886;17.078;2023-04-03T05:12:07;-0.60;1.00
21403;DHT22;10862;51.886;17.078;2023-04-03T05:14:33;-0.60;1.00
21403;DHT22;10862;51.886;17.078;2023-04-03T05:16:59;-0.50;1.00
21403;DHT22;10862;51.886;17.078;2023-04-03T05:19:24;-0.50;1.00
21403;DHT22;10862;51.886;17.078;2023-04-03T05:21:50;-0.50;1.00
21403;DHT22;10862;51.886;17.078;2023-04-03T05:24:16;-0.50;1.00
21403;DHT22;10862;51.886;17.078;2023-04-03T05:26:42;-0.50;1.00
21403;DHT22;10862;51.886;17.078;2023-04-03T05:29:08;-0.40;1.00
21403;DHT22;10862;51.886;17.078;2023-04-03T05:31:34;-0.40;1.00
21403;DHT22;10862;51.886;17.078;2023-04-03T05:34:00;-0.30;1.00
21403;DHT22;10862;51.886;17.078;2023-04-03T05:36:26;-0.30;1.00
21403;DHT22;10862;51.886;17.078;2023-04-03T05:38:52;-0.20;1.00
21403;DHT22;10862;51.886;17.078;2023-04-03T05:41:19;-0.20;1.00
21403;DHT22;10862;51.886;17.078;2023-04-03T05:43:46;-0.10;1.00
21403;DHT22;10862;51.886;17.078;2023-04-03T05:46:16;-0.10;1.00
21403;DHT22;10862;51.886;17.078;2023-04-03T05:48:43;0.00;1.00
21403;DHT22;10862;51.886;17.078;2023-04-03T05:51:24;0.00;1.00
21403;DHT22;10862;51.886;17.078;2023-04-03T05:53:56;0.00;1.00
21403;DHT22;10862;51.886;17.078;2023-04-03T05:56:25;0.10;1.00
21403;DHT22;10862;51.886;17.078;2023-04-03T05:58:50;0.10;1.00
21403;DHT22;10862;51.886;17.078;2023-04-03T06:01:16;0.20;1.00
21403;DHT22;10862;51.886;17.078;2023-04-03T06:03:42;0.20;1.00
21403;DHT22;10862;51.886;17.078;2023-04-03T06:06:10;0.40;1.00
21403;DHT22;10862;51.886;17.078;2023-04-03T06:08:37;0.30;1.00
21403;DHT22;10862;51.886;17.078;2023-04-03T06:11:03;0.40;1.00
21403;DHT22;10862;51.886;17.078;2023-04-03T06:13:29;0.50;1.00
21403;DHT22;10862;51.886;17.078;2023-04-03T06:15:55;0.50;1.00
21403;DHT22;10862;51.886;17.078;2023-04-03T06:18:21;0.50;1.00
21403;DHT22;10862;51.886;17.078;2023-04-03T06:20:47;0.60;1.00
21403;DHT22;10862;51.886;17.078;2023-04-03T06:23:12;0.60;1.00
21403;DHT22;10862;51.886;17.078;2023-04-03T06:25:38;0.60;1.00
21403;DHT22;10862;51.886;17.078;2023-04-03T06:28:04;0.60;1.00
21403;DHT22;10862;51.886;17.078;2023-04-03T06:30:30;0.70;1.00
21403;DHT22;10862;51.886;17.078;2023-04-03T06:32:56;0.80;1.00
21403;DHT22;10862;51.886;17.078;2023-04-03T06:35:21;0.80;1.00
21403;DHT22;10862;51.886;17.078;2023-04-03T06:37:49;0.80;1.00
21403;DHT22;10862;51.886;17.078;2023-04-03T06:40:24;0.90;1.00
21403;DHT22;10862;51.886;17.078;2023-04-03T06:42:51;1.00;1.00
21403;DHT22;10862;51.886;17.078;2023-04-03T06:45:17;1.00;1.00
21403;DHT22;10862;51.886;17.078;2023-04-03T06:47:43;1.10;1.00
21403;DHT22;10862;51.886;17.078;2023-04-03T06:50:10;1.20;1.00
21403;DHT22;10862;51.886;17.078;2023-04-03T06:52:39;1.20;1.00
21403;DHT22;10862;51.886;17.078;2023-04-03T06:55:06;1.20;1.00
21403;DHT22;10862;51.886;17.078;2023-04-03T06:57:31;1.30;1.00
21403;DHT22;10862;51.886;17.078;2023-04-03T06:59:57;1.40;1.00
21403;DHT22;10862;51.886;17.078;2023-04-03T07:02:23;1.40;1.00
21403;DHT22;10862;51.886;17.078;2023-04-03T07:04:49;1.50;1.00
21403;DHT22;10862;51.886;17.078;2023-04-03T07:07:14;1.70;1.00
21403;DHT22;10862;51.886;17.078;2023-04-03T07:09:40;1.70;1.00
21403;DHT22;10862;51.886;17.078;2023-04-03T07:12:07;1.70;1.00
21403;DHT22;10862;51.886;17.078;2023-04-03T07:14:33;1.70;1.00
21403;DHT22;10862;51.886;17.078;2023-04-03T07:16:59;1.90;1.00
21403;DHT22;10862;51.886;17.078;2023-04-03T07:19:25;1.80;1.00
21403;DHT22;10862;51.886;17.078;2023-04-03T07:21:53;2.00;1.00
21403;DHT22;10862;51.886;17.078;2023-04-03T07:24:19;2.20;1.00
21403;DHT22;10862;51.886;17.078;2023-04-03T07:26:49;2.30;1.00
21403;DHT22;10862;51.886;17.078;2023-04-03T07:29:15;2.20;1.00
21403;DHT22;10862;51.886;17.078;2023-04-03T07:31:42;2.10;1.00
21403;DHT22;10862;51.886;17.078;2023-04-03T07:34:08;2.40;1.00
21403;DHT22;10862;51.886;17.078;2023-04-03T07:36:34;2.20;1.00
21403;DHT22;10862;51.886;17.078;2023-04-03T07:38:59;2.40;1.00
21403;DHT22;10862;51.886;17.078;2023-04-03T07:41:25;2.50;1.00
21403;DHT22;10862;51.886;17.078;2023-04-03T07:43:51;2.70;1.00
21403;DHT22;10862;51.886;17.078;2023-04-03T07:46:17;2.70;1.00
21403;DHT22;10862;51.886;17.078;2023-04-03T07:48:43;2.70;1.00
21403;DHT22;10862;51.886;17.078;2023-04-03T07:51:09;2.70;1.00
21403;DHT22;10862;51.886;17.078;2023-04-03T07:53:36;2.50;1.00
21403;DHT22;10862;51.886;17.078;2023-04-03T07:56:01;2.80;1.00
21403;DHT22;10862;51.886;17.078;2023-04-03T07:58:28;2.90;1.00
21403;DHT22;10862;51.886;17.078;2023-04-03T08:00:54;2.90;1.00
21403;DHT22;10862;51.886;17.078;2023-04-03T08:03:20;2.70;1.00
21403;DHT22;10862;51.886;17.078;2023-04-03T08:05:48;2.50;1.00
21403;DHT22;10862;51.886;17.078;2023-04-03T08:08:19;2.70;1.00
21403;DHT22;10862;51.886;17.078;2023-04-03T08:10:53;2.60;1.00
21403;DHT22;10862;51.886;17.078;2023-04-03T08:13:20;3.00;1.00
21403;DHT22;10862;51.886;17.078;2023-04-03T08:15:46;3.00;1.00
21403;DHT22;10862;51.886;17.078;2023-04-03T08:18:12;3.20;1.00
21403;DHT22;10862;51.886;17.078;2023-04-03T08:20:39;3.30;1.00
21403;DHT22;10862;51.886;17.078;2023-04-03T08:23:06;3.30;1.00
21403;DHT22;10862;51.886;17.078;2023-04-03T08:25:33;3.20;1.00
21403;DHT22;10862;51.886;17.078;2023-04-03T08:27:58;3.10;1.00
21403;DHT22;10862;51.886;17.078;2023-04-03T08:30:24;3.20;1.00
21403;DHT22;10862;51.886;17.078;2023-04-03T08:32:50;3.20;1.00
21403;DHT22;10862;51.886;17.078;2023-04-03T08:35:16;3.50;1.00
21403;DHT22;10862;51.886;17.078;2023-04-03T08:37:41;3.60;1.00
21403;DHT22;10862;51.886;17.078;2023-04-03T08:40:12;3.50;1.00
21403;DHT22;10862;51.886;17.078;2023-04-03T08:42:45;3.50;1.00
21403;DHT22;10862;51.886;17.078;2023-04-03T08:47:55;4.10;1.00
21403;DHT22;10862;51.886;17.078;2023-04-03T08:50:38;4.40;1.00
21403;DHT22;10862;51.886;17.078;2023-04-03T08:53:10;4.20;1.00
21403;DHT22;10862;51.886;17.078;2023-04-03T08:55:44;3.90;1.00
21403;DHT22;10862;51.886;17.078;2023-04-03T08:58:25;3.40;1.00
21403;DHT22;10862;51.886;17.078;2023-04-03T09:03:22;3.40;1.00
21403;DHT22;10862;51.886;17.078;2023-04-03T09:06:02;3.40;1.00
21403;DHT22;10862;51.886;17.078;2023-04-03T09:11:20;3.90;1.00
21403;DHT22;10862;51.886;17.078;2023-04-03T09:16:56;4.30;1.00
21403;DHT22;10862;51.886;17.078;2023-04-03T09:22:20;4.70;1.00
21403;DHT22;10862;51.886;17.078;2023-04-03T09:24:52;4.30;1.00
21403;DHT22;10862;51.886;17.078;2023-04-03T09:27:22;4.60;1.00
21403;DHT22;10862;51.886;17.078;2023-04-03T09:29:49;4.80;1.00
21403;DHT22;10862;51.886;17.078;2023-04-03T09:32:31;4.30;1.00
21403;DHT22;10862;51.886;17.078;2023-04-03T09:35:13;4.40;1.00
21403;DHT22;10862;51.886;17.078;2023-04-03T09:37:43;4.30;1.00
21403;DHT22;10862;51.886;17.078;2023-04-03T09:40:37;3.70;1.00
21403;DHT22;10862;51.886;17.078;2023-04-03T09:43:29;3.50;1.00
21403;DHT22;10862;51.886;17.078;2023-04-03T09:46:15;3.60;1.00
21403;DHT22;10862;51.886;17.078;2023-04-03T09:48:56;3.30;1.00
21403;DHT22;10862;51.886;17.078;2023-04-03T09:51:29;4.30;1.00
21403;DHT22;10862;51.886;17.078;2023-04-03T09:53:55;4.50;1.00
21403;DHT22;10862;51.886;17.078;2023-04-03T09:56:27;5.30;1.00
21403;DHT22;10862;51.886;17.078;2023-04-03T10:01:31;5.50;1.00
21403;DHT22;10862;51.886;17.078;2023-04-03T10:04:11;5.00;1.00
21403;DHT22;10862;51.886;17.078;2023-04-03T10:06:43;4.90;1.00
21403;DHT22;10862;51.886;17.078;2023-04-03T10:09:26;6.10;1.00
21403;DHT22;10862;51.886;17.078;2023-04-03T10:14:33;5.50;1.00
21403;DHT22;10862;51.886;17.078;2023-04-03T10:17:18;5.00;1.00
21403;DHT22;10862;51.886;17.078;2023-04-03T10:41:42;4.20;1.00
21403;DHT22;10862;51.886;17.078;2023-04-03T10:46:53;4.70;1.00
21403;DHT22;10862;51.886;17.078;2023-04-03T10:49:45;4.60;1.00
21403;DHT22;10862;51.886;17.078;2023-04-03T10:52:22;5.70;1.00
21403;DHT22;10862;51.886;17.078;2023-04-03T10:57:30;7.00;1.00
21403;DHT22;10862;51.886;17.078;2023-04-03T11:00:03;6.60;1.00
21403;DHT22;10862;51.886;17.078;2023-04-03T11:02:32;5.50;1.00
21403;DHT22;10862;51.886;17.078;2023-04-03T11:05:05;5.20;1.00
21403;DHT22;10862;51.886;17.078;2023-04-03T11:07:42;5.10;1.00
21403;DHT22;10862;51.886;17.078;2023-04-03T11:13:10;5.10;1.00
21403;DHT22;10862;51.886;17.078;2023-04-03T11:15:37;5.80;1.00
21403;DHT22;10862;51.886;17.078;2023-04-03T11:18:19;6.40;1.00
21403;DHT22;10862;51.886;17.078;2023-04-03T11:21:00;5.90;1.00
21403;DHT22;10862;51.886;17.078;2023-04-03T11:23:33;5.60;1.00
21403;DHT22;10862;51.886;17.078;2023-04-03T11:26:12;6.40;1.00
21403;DHT22;10862;51.886;17.078;2023-04-03T11:28:39;6.50;1.00
21403;DHT22;10862;51.886;17.078;2023-04-03T11:36:47;5.80;1.00
21403;DHT22;10862;51.886;17.078;2023-04-03T11:39:28;5.00;1.00
21403;DHT22;10862;51.886;17.078;2023-04-03T11:42:22;4.80;1.00
21403;DHT22;10862;51.886;17.078;2023-04-03T11:44:50;4.50;1.00
21403;DHT22;10862;51.886;17.078;2023-04-03T11:47:54;4.90;1.00
21403;DHT22;10862;51.886;17.078;2023-04-03T12:00:50;7.30;1.00
21403;DHT22;10862;51.886;17.078;2023-04-03T12:24:32;6.30;1.00
21403;DHT22;10862;51.886;17.078;2023-04-03T12:27:16;5.90;1.00
21403;DHT22;10862;51.886;17.078;2023-04-03T12:30:04;5.50;1.00
21403;DHT22;10862;51.886;17.078;2023-04-03T12:35:37;7.00;1.00
21403;DHT22;10862;51.886;17.078;2023-04-03T12:38:47;8.00;1.00
21403;DHT22;10862;51.886;17.078;2023-04-03T12:41:38;6.90;1.00
21403;DHT22;10862;51.886;17.078;2023-04-03T12:44:40;6.70;1.00
21403;DHT22;10862;51.886;17.078;2023-04-03T12:47:27;6.00;1.00
21403;DHT22;10862;51.886;17.078;2023-04-03T12:49:55;6.10;1.00
21403;DHT22;10862;51.886;17.078;2023-04-03T12:52:30;6.00;1.00
21403;DHT22;10862;51.886;17.078;2023-04-03T12:54:59;5.50;1.00
21403;DHT22;10862;51.886;17.078;2023-04-03T12:57:27;5.70;1.00
21403;DHT22;10862;51.886;17.078;2023-04-03T12:59:53;6.50;1.00
21403;DHT22;10862;51.886;17.078;2023-04-03T13:02:26;6.40;1.00
21403;DHT22;10862;51.886;17.078;2023-04-03T13:04:58;7.40;1.00
21403;DHT22;10862;51.886;17.078;2023-04-03T13:07:33;6.90;1.00
21403;DHT22;10862;51.886;17.078;2023-04-03T13:10:20;5.90;1.00
21403;DHT22;10862;51.886;17.078;2023-04-03T13:15:26;5.70;1.00
21403;DHT22;10862;51.886;17.078;2023-04-03T13:17:54;5.50;1.00
21403;DHT22;10862;51.886;17.078;2023-04-03T13:20:29;5.70;1.00
21403;DHT22;10862;51.886;17.078;2023-04-03T13:23:02;5.60;1.00
21403;DHT22;10862;51.886;17.078;2023-04-03T13:25:32;5.80;1.00
21403;DHT22;10862;51.886;17.078;2023-04-03T13:28:01;6.70;1.00
21403;DHT22;10862;51.886;17.078;2023-04-03T13:30:33;6.50;1.00
21403;DHT22;10862;51.886;17.078;2023-04-03T13:33:04;6.40;1.00
21403;DHT22;10862;51.886;17.078;2023-04-03T13:35:32;5.60;1.00
21403;DHT22;10862;51.886;17.078;2023-04-03T13:38:05;5.40;1.00
21403;DHT22;10862;51.886;17.078;2023-04-03T13:40:31;5.30;1.00
21403;DHT22;10862;51.886;17.078;2023-04-03T13:43:23;5.60;1.00
21403;DHT22;10862;51.886;17.078;2023-04-03T13:48:43;6.10;1.00
21403;DHT22;10862;51.886;17.078;2023-04-03T13:53:52;5.50;1.00
21403;DHT22;10862;51.886;17.078;2023-04-03T13:56:39;5.60;1.00
21403;DHT22;10862;51.886;17.078;2023-04-03T14:01:53;5.40;1.00
21403;DHT22;10862;51.886;17.078;2023-04-03T14:04:25;5.20;1.00
21403;DHT22;10862;51.886;17.078;2023-04-03T14:06:53;5.40;1.00
21403;DHT22;10862;51.886;17.078;2023-04-03T14:09:20;5.80;1.00
21403;DHT22;10862;51.886;17.078;2023-04-03T14:11:52;5.40;1.00
21403;DHT22;10862;51.886;17.078;2023-04-03T14:14:31;5.10;1.00
21403;DHT22;10862;51.886;17.078;2023-04-03T14:16:59;5.20;1.00
21403;DHT22;10862;51.886;17.078;2023-04-03T14:19:36;5.30;1.00
21403;DHT22;10862;51.886;17.078;2023-04-03T14:22:21;5.50;1.00
21403;DHT22;10862;51.886;17.078;2023-04-03T14:24:50;5.10;1.00
21403;DHT22;10862;51.886;17.078;2023-04-03T14:27:24;5.20;1.00
21403;DHT22;10862;51.886;17.078;2023-04-03T14:29:52;5.30;1.00
21403;DHT22;10862;51.886;17.078;2023-04-03T14:32:19;5.30;1.00
21403;DHT22;10862;51.886;17.078;2023-04-03T14:34:46;5.20;1.00
21403;DHT22;10862;51.886;17.078;2023-04-03T14:37:17;5.00;1.00
21403;DHT22;10862;51.886;17.078;2023-04-03T14:39:44;5.00;1.00
21403;DHT22;10862;51.886;17.078;2023-04-03T14:42:15;5.20;1.00
21403;DHT22;10862;51.886;17.078;2023-04-03T14:44:42;5.60;1.00
21403;DHT22;10862;51.886;17.078;2023-04-03T14:47:18;5.40;1.00
21403;DHT22;10862;51.886;17.078;2023-04-03T14:49:44;5.10;1.00
21403;DHT22;10862;51.886;17.078;2023-04-03T14:52:32;5.10;1.00
21403;DHT22;10862;51.886;17.078;2023-04-03T14:54:58;5.00;1.00
21403;DHT22;10862;51.886;17.078;2023-04-03T14:57:27;4.90;1.00
21403;DHT22;10862;51.886;17.078;2023-04-03T14:59:53;4.80;1.00
21403;DHT22;10862;51.886;17.078;2023-04-03T15:02:37;4.90;1.00
21403;DHT22;10862;51.886;17.078;2023-04-03T15:05:08;5.00;1.00
21403;DHT22;10862;51.886;17.078;2023-04-03T15:12:41;5.60;1.00
21403;DHT22;10862;51.886;17.078;2023-04-03T15:15:07;5.90;1.00
21403;DHT22;10862;51.886;17.078;2023-04-03T15:17:34;5.80;1.00
21403;DHT22;10862;51.886;17.078;2023-04-03T15:20:01;6.20;1.00
21403;DHT22;10862;51.886;17.078;2023-04-03T15:22:27;6.70;1.00
21403;DHT22;10862;51.886;17.078;2023-04-03T15:24:53;6.50;1.00
21403;DHT22;10862;51.886;17.078;2023-04-03T15:27:19;6.10;1.00
21403;DHT22;10862;51.886;17.078;2023-04-03T15:29:45;5.80;1.00
21403;DHT22;10862;51.886;17.078;2023-04-03T15:32:11;5.30;1.00
21403;DHT22;10862;51.886;17.078;2023-04-03T15:34:38;5.00;1.00
21403;DHT22;10862;51.886;17.078;2023-04-03T15:37:04;5.00;1.00
21403;DHT22;10862;51.886;17.078;2023-04-03T15:39:31;4.90;1.00
21403;DHT22;10862;51.886;17.078;2023-04-03T15:41:57;4.80;1.00
21403;DHT22;10862;51.886;17.078;2023-04-03T15:44:25;4.70;1.00
21403;DHT22;10862;51.886;17.078;2023-04-03T15:46:50;4.70;1.00
21403;DHT22;10862;51.886;17.078;2023-04-03T15:49:18;4.60;1.00
21403;DHT22;10862;51.886;17.078;2023-04-03T15:51:44;4.80;1.00
21403;DHT22;10862;51.886;17.078;2023-04-03T15:54:10;5.10;1.00
21403;DHT22;10862;51.886;17.078;2023-04-03T15:56:36;4.90;1.00
21403;DHT22;10862;51.886;17.078;2023-04-03T15:59:02;5.10;1.00
21403;DHT22;10862;51.886;17.078;2023-04-03T16:01:28;5.00;1.00
21403;DHT22;10862;51.886;17.078;2023-04-03T16:03:54;4.80;1.00
21403;DHT22;10862;51.886;17.078;2023-04-03T16:06:20;5.00;1.00
21403;DHT22;10862;51.886;17.078;2023-04-03T16:08:47;4.90;1.00
21403;DHT22;10862;51.886;17.078;2023-04-03T16:11:14;4.60;1.00
21403;DHT22;10862;51.886;17.078;2023-04-03T16:13:40;4.60;1.00
21403;DHT22;10862;51.886;17.078;2023-04-03T16:16:07;4.60;1.00
21403;DHT22;10862;51.886;17.078;2023-04-03T16:18:34;4.60;1.00
21403;DHT22;10862;51.886;17.078;2023-04-03T16:21:01;4.50;1.00
21403;DHT22;10862;51.886;17.078;2023-04-03T16:23:26;4.60;1.00
21403;DHT22;10862;51.886;17.078;2023-04-03T16:25:52;4.60;1.00
21403;DHT22;10862;51.886;17.078;2023-04-03T16:28:18;4.70;1.00
21403;DHT22;10862;51.886;17.078;2023-04-03T16:30:45;4.70;1.00
21403;DHT22;10862;51.886;17.078;2023-04-03T16:33:12;4.60;1.00
21403;DHT22;10862;51.886;17.078;2023-04-03T16:35:39;4.70;1.00
21403;DHT22;10862;51.886;17.078;2023-04-03T16:38:04;4.60;1.00
21403;DHT22;10862;51.886;17.078;2023-04-03T16:40:31;4.50;1.00
21403;DHT22;10862;51.886;17.078;2023-04-03T16:43:00;4.40;1.00
21403;DHT22;10862;51.886;17.078;2023-04-03T16:45:26;4.40;1.00
21403;DHT22;10862;51.886;17.078;2023-04-03T16:47:52;4.40;1.00
21403;DHT22;10862;51.886;17.078;2023-04-03T16:50:17;4.30;1.00
21403;DHT22;10862;51.886;17.078;2023-04-03T16:52:45;4.40;1.00
21403;DHT22;10862;51.886;17.078;2023-04-03T16:55:11;4.30;1.00
21403;DHT22;10862;51.886;17.078;2023-04-03T16:57:37;4.30;1.00
21403;DHT22;10862;51.886;17.078;2023-04-03T17:00:03;4.20;1.00
21403;DHT22;10862;51.886;17.078;2023-04-03T17:02:31;4.30;1.00
21403;DHT22;10862;51.886;17.078;2023-04-03T17:04:57;4.30;1.00
21403;DHT22;10862;51.886;17.078;2023-04-03T17:07:24;4.30;1.00
21403;DHT22;10862;51.886;17.078;2023-04-03T17:09:50;4.20;1.00
21403;DHT22;10862;51.886;17.078;2023-04-03T17:12:17;4.20;1.00
21403;DHT22;10862;51.886;17.078;2023-04-03T17:14:43;4.10;1.00
21403;DHT22;10862;51.886;17.078;2023-04-03T17:17:09;4.10;1.00
21403;DHT22;10862;51.886;17.078;2023-04-03T17:19:35;4.10;1.00
21403;DHT22;10862;51.886;17.078;2023-04-03T17:22:02;4.00;1.00
21403;DHT22;10862;51.886;17.078;2023-04-03T17:24:28;4.00;1.00
21403;DHT22;10862;51.886;17.078;2023-04-03T17:26:54;4.00;1.00
21403;DHT22;10862;51.886;17.078;2023-04-03T17:29:20;4.00;1.00
21403;DHT22;10862;51.886;17.078;2023-04-03T17:31:46;3.90;1.00
21403;DHT22;10862;51.886;17.078;2023-04-03T17:34:11;3.90;1.00
21403;DHT22;10862;51.886;17.078;2023-04-03T17:36:38;3.90;1.00
21403;DHT22;10862;51.886;17.078;2023-04-03T17:39:04;3.80;1.00
21403;DHT22;10862;51.886;17.078;2023-04-03T17:41:30;3.80;1.00